sensor_id;sensor_type;location;lat;lon;timestamp;P1;durP1;ratioP1;P2;durP2;ratioP2
1785;SDS011;890;48.158;11.540;2024-01-30T00:01:15;13.90;;;9.13;;
1785;SDS011;890;48.158;11.540;2024-01-30T00:03:41;15.50;;;8.87;;
1785;SDS011;890;48.158;11.540;2024-01-30T00:06:07;16.87;;;10.07;;
1785;SDS011;890;48.158;11.540;2024-01-30T00:08:33;11.37;;;6.47;;
1785;SDS011;890;48.158;11.540;2024-01-30T00:10:59;14.47;;;6.20;;
1785;SDS011;890;48.158;11.540;2024-01-30T00:13:24;16.33;;;9.67;;
1785;SDS011;890;48.158;11.540;2024-01-30T00:15:50;12.60;;;9.00;;
1785;SDS011;890;48.158;11.540;2024-01-30T00:18:16;14.30;;;9.63;;
1785;SDS011;890;48.158;11.540;2024-01-30T00:20:41;16.80;;;10.23;;
1785;SDS011;890;48.158;11.540;2024-01-30T00:23:08;10.90;;;6.93;;
1785;SDS011;890;48.158;11.540;2024-01-30T00:25:33;13.40;;;8.70;;
1785;SDS011;890;48.158;11.540;2024-01-30T00:27:59;10.20;;;5.50;;
1785;SDS011;890;48.158;11.540;2024-01-30T00:30:25;14.83;;;7.07;;
1785;SDS011;890;48.158;11.540;2024-01-30T00:32:51;15.80;;;8.70;;
1785;SDS011;890;48.158;11.540;2024-01-30T00:35:16;9.83;;;6.33;;
1785;SDS011;890;48.158;11.540;2024-01-30T00:37:42;22.57;;;14.60;;
1785;SDS011;890;48.158;11.540;2024-01-30T00:40:08;13.27;;;6.73;;
1785;SDS011;890;48.158;11.540;2024-01-30T00:42:40;12.80;;;8.60;;
1785;SDS011;890;48.158;11.540;2024-01-30T00:45:11;13.70;;;8.27;;
1785;SDS011;890;48.158;11.540;2024-01-30T00:47:38;84.03;;;76.80;;
1785;SDS011;890;48.158;11.540;2024-01-30T00:50:03;13.23;;;10.03;;
1785;SDS011;890;48.158;11.540;2024-01-30T00:52:30;7.80;;;4.50;;
1785;SDS011;890;48.158;11.540;2024-01-30T00:54:55;12.63;;;5.00;;
1785;SDS011;890;48.158;11.540;2024-01-30T00:57:21;10.10;;;4.13;;
1785;SDS011;890;48.158;11.540;2024-01-30T00:59:47;13.70;;;9.43;;
1785;SDS011;890;48.158;11.540;2024-01-30T01:02:12;15.53;;;10.07;;
1785;SDS011;890;48.158;11.540;2024-01-30T01:04:40;13.97;;;10.20;;
1785;SDS011;890;48.158;11.540;2024-01-30T01:07:05;14.73;;;10.13;;
1785;SDS011;890;48.158;11.540;2024-01-30T01:09:31;13.10;;;5.73;;
1785;SDS011;890;48.158;11.540;2024-01-30T01:11:56;15.13;;;10.00;;
1785;SDS011;890;48.158;11.540;2024-01-30T01:14:22;10.90;;;6.20;;
1785;SDS011;890;48.158;11.540;2024-01-30T01:16:48;15.90;;;8.23;;
1785;SDS011;890;48.158;11.540;2024-01-30T01:19:13;11.40;;;4.90;;
1785;SDS011;890;48.158;11.540;2024-01-30T01:21:39;7.23;;;4.50;;
1785;SDS011;890;48.158;11.540;2024-01-30T01:24:05;11.00;;;5.37;;
1785;SDS011;890;48.158;11.540;2024-01-30T01:26:30;10.43;;;4.83;;
1785;SDS011;890;48.158;11.540;2024-01-30T01:28:56;8.43;;;4.17;;
1785;SDS011;890;48.158;11.540;2024-01-30T01:31:21;14.03;;;9.47;;
1785;SDS011;890;48.158;11.540;2024-01-30T01:33:49;12.03;;;4.57;;
1785;SDS011;890;48.158;11.540;2024-01-30T01:36:15;11.50;;;5.63;;
1785;SDS011;890;48.158;11.540;2024-01-30T01:38:41;16.67;;;8.23;;
1785;SDS011;890;48.158;11.540;2024-01-30T01:41:06;8.63;;;4.77;;
1785;SDS011;890;48.158;11.540;2024-01-30T01:43:32;17.57;;;11.37;;
1785;SDS011;890;48.158;11.540;2024-01-30T01:45:58;12.37;;;6.47;;
1785;SDS011;890;48.158;11.540;2024-01-30T01:48:23;8.50;;;5.60;;
1785;SDS011;890;48.158;11.540;2024-01-30T01:50:49;12.97;;;7.37;;
1785;SDS011;890;48.158;11.540;2024-01-30T01:53:16;12.90;;;6.70;;
1785;SDS011;890;48.158;11.540;2024-01-30T01:55:42;16.20;;;10.83;;
1785;SDS011;890;48.158;11.540;2024-01-30T01:58:08;17.93;;;6.97;;
1785;SDS011;890;48.158;11.540;2024-01-30T02:00:35;21.63;;;7.93;;
1785;SDS011;890;48.158;11.540;2024-01-30T02:03:04;14.10;;;9.57;;
1785;SDS011;890;48.158;11.540;2024-01-30T02:05:31;9.20;;;5.70;;
1785;SDS011;890;48.158;11.540;2024-01-30T02:07:57;15.60;;;9.60;;
1785;SDS011;890;48.158;11.540;2024-01-30T02:10:23;8.60;;;4.97;;
1785;SDS011;890;48.158;11.540;2024-01-30T02:12:49;15.77;;;10.37;;
1785;SDS011;890;48.158;11.540;2024-01-30T02:15:15;19.80;;;9.60;;
1785;SDS011;890;48.158;11.540;2024-01-30T02:17:40;12.53;;;5.53;;
1785;SDS011;890;48.158;11.540;2024-01-30T02:20:06;7.60;;;5.17;;
1785;SDS011;890;48.158;11.540;2024-01-30T02:22:33;10.10;;;6.27;;
1785;SDS011;890;48.158;11.540;2024-01-30T02:25:00;10.80;;;5.60;;
1785;SDS011;890;48.158;11.540;2024-01-30T02:27:25;16.07;;;9.80;;
1785;SDS011;890;48.158;11.540;2024-01-30T02:29:51;17.60;;;14.63;;
1785;SDS011;890;48.158;11.540;2024-01-30T02:32:17;16.87;;;8.10;;
1785;SDS011;890;48.158;11.540;2024-01-30T02:34:43;11.03;;;5.43;;
1785;SDS011;890;48.158;11.540;2024-01-30T02:37:08;9.17;;;6.40;;
1785;SDS011;890;48.158;11.540;2024-01-30T02:39:34;17.70;;;16.37;;
1785;SDS011;890;48.158;11.540;2024-01-30T02:41:59;62.40;;;57.77;;
1785;SDS011;890;48.158;11.540;2024-01-30T02:44:25;91.67;;;86.27;;
1785;SDS011;890;48.158;11.540;2024-01-30T02:46:51;70.43;;;65.93;;
1785;SDS011;890;48.158;11.540;2024-01-30T02:49:19;57.17;;;53.60;;
1785;SDS011;890;48.158;11.540;2024-01-30T02:51:44;40.47;;;37.50;;
1785;SDS011;890;48.158;11.540;2024-01-30T02:54:10;34.90;;;32.70;;
1785;SDS011;890;48.158;11.540;2024-01-30T02:56:36;21.33;;;19.13;;
1785;SDS011;890;48.158;11.540;2024-01-30T02:59:01;41.83;;;38.93;;
1785;SDS011;890;48.158;11.540;2024-01-30T03:01:27;34.00;;;31.43;;
1785;SDS011;890;48.158;11.540;2024-01-30T03:03:52;62.50;;;58.80;;
1785;SDS011;890;48.158;11.540;2024-01-30T03:06:18;54.43;;;51.00;;
1785;SDS011;890;48.158;11.540;2024-01-30T03:08:45;64.53;;;59.77;;
1785;SDS011;890;48.158;11.540;2024-01-30T03:11:10;42.60;;;39.83;;
1785;SDS011;890;48.158;11.540;2024-01-30T03:13:36;70.20;;;65.37;;
1785;SDS011;890;48.158;11.540;2024-01-30T03:16:02;104.23;;;96.97;;
1785;SDS011;890;48.158;11.540;2024-01-30T03:18:27;79.53;;;72.77;;
1785;SDS011;890;48.158;11.540;2024-01-30T03:20:53;80.10;;;74.30;;
1785;SDS011;890;48.158;11.540;2024-01-30T03:23:19;81.63;;;75.23;;
1785;SDS011;890;48.158;11.540;2024-01-30T03:25:44;38.17;;;35.37;;
1785;SDS011;890;48.158;11.540;2024-01-30T03:28:10;71.00;;;66.53;;
1785;SDS011;890;48.158;11.540;2024-01-30T03:30:36;48.17;;;44.80;;
1785;SDS011;890;48.158;11.540;2024-01-30T03:33:02;43.57;;;41.20;;
1785;SDS011;890;48.158;11.540;2024-01-30T03:35:27;84.67;;;79.43;;
1785;SDS011;890;48.158;11.540;2024-01-30T03:37:53;30.53;;;28.37;;
1785;SDS011;890;48.158;11.540;2024-01-30T03:40:19;19.67;;;17.90;;
1785;SDS011;890;48.158;11.540;2024-01-30T03:42:44;14.80;;;12.30;;
1785;SDS011;890;48.158;11.540;2024-01-30T03:45:10;47.07;;;40.03;;
1785;SDS011;890;48.158;11.540;2024-01-30T03:47:36;92.53;;;83.50;;
1785;SDS011;890;48.158;11.540;2024-01-30T03:50:01;142.43;;;131.97;;
1785;SDS011;890;48.158;11.540;2024-01-30T03:52:27;150.53;;;137.83;;
1785;SDS011;890;48.158;11.540;2024-01-30T03:54:53;1434.07;;;999.90;;
1785;SDS011;890;48.158;11.540;2024-01-30T03:57:18;813.27;;;742.00;;
1785;SDS011;890;48.158;11.540;2024-01-30T03:59:44;174.37;;;156.53;;
1785;SDS011;890;48.158;11.540;2024-01-30T04:02:10;291.90;;;194.87;;
1785;SDS011;890;48.158;11.540;2024-01-30T04:04:36;492.93;;;444.93;;
1785;SDS011;890;48.158;11.540;2024-01-30T04:07:02;209.37;;;194.13;;
1785;SDS011;890;48.158;11.540;2024-01-30T04:09:28;81.23;;;76.10;;
1785;SDS011;890;48.158;11.540;2024-01-30T04:11:54;79.27;;;73.03;;
1785;SDS011;890;48.158;11.540;2024-01-30T04:14:19;30.53;;;28.43;;
1785;SDS011;890;48.158;11.540;2024-01-30T04:16:45;93.23;;;86.33;;
1785;SDS011;890;48.158;11.540;2024-01-30T04:19:10;15.40;;;14.13;;
1785;SDS011;890;48.158;11.540;2024-01-30T04:21:36;18.83;;;17.23;;
1785;SDS011;890;48.158;11.540;2024-01-30T04:24:02;20.80;;;18.67;;
1785;SDS011;890;48.158;11.540;2024-01-30T04:26:27;9.73;;;7.00;;
1785;SDS011;890;48.158;11.540;2024-01-30T04:28:53;9.57;;;8.60;;
1785;SDS011;890;48.158;11.540;2024-01-30T04:31:19;6.70;;;5.53;;
1785;SDS011;890;48.158;11.540;2024-01-30T04:33:44;15.40;;;5.80;;
1785;SDS011;890;48.158;11.540;2024-01-30T04:36:10;6.73;;;3.23;;
1785;SDS011;890;48.158;11.540;2024-01-30T04:38:36;9.83;;;4.17;;
1785;SDS011;890;48.158;11.540;2024-01-30T04:41:02;4.73;;;3.17;;
1785;SDS011;890;48.158;11.540;2024-01-30T04:43:29;9.67;;;4.70;;
1785;SDS011;890;48.158;11.540;2024-01-30T04:45:55;8.37;;;3.90;;
1785;SDS011;890;48.158;11.540;2024-01-30T04:48:20;8.97;;;4.53;;
1785;SDS011;890;48.158;11.540;2024-01-30T04:50:46;5.90;;;4.10;;
1785;SDS011;890;48.158;11.540;2024-01-30T04:53:12;8.20;;;3.80;;
1785;SDS011;890;48.158;11.540;2024-01-30T04:55:37;4.67;;;2.53;;
1785;SDS011;890;48.158;11.540;2024-01-30T04:58:03;5.40;;;3.30;;
1785;SDS011;890;48.158;11.540;2024-01-30T05:00:28;4.67;;;2.53;;
1785;SDS011;890;48.158;11.540;2024-01-30T05:02:55;6.07;;;2.73;;
1785;SDS011;890;48.158;11.540;2024-01-30T05:05:21;2.50;;;1.90;;
1785;SDS011;890;48.158;11.540;2024-01-30T05:07:47;7.60;;;5.70;;
1785;SDS011;890;48.158;11.540;2024-01-30T05:10:13;3.27;;;2.50;;
1785;SDS011;890;48.158;11.540;2024-01-30T05:12:39;8.03;;;5.90;;
1785;SDS011;890;48.158;11.540;2024-01-30T05:15:05;6.83;;;3.27;;
1785;SDS011;890;48.158;11.540;2024-01-30T05:17:31;5.27;;;2.67;;
1785;SDS011;890;48.158;11.540;2024-01-30T05:19:57;8.00;;;4.40;;
1785;SDS011;890;48.158;11.540;2024-01-30T05:22:22;2.80;;;2.40;;
1785;SDS011;890;48.158;11.540;2024-01-30T05:24:48;6.83;;;4.03;;
1785;SDS011;890;48.158;11.540;2024-01-30T05:27:13;5.83;;;2.97;;
1785;SDS011;890;48.158;11.540;2024-01-30T05:29:39;6.07;;;3.33;;
1785;SDS011;890;48.158;11.540;2024-01-30T05:32:06;9.27;;;4.03;;
1785;SDS011;890;48.158;11.540;2024-01-30T05:34:31;7.63;;;3.80;;
1785;SDS011;890;48.158;11.540;2024-01-30T05:36:57;9.30;;;5.13;;
1785;SDS011;890;48.158;11.540;2024-01-30T05:39:23;13.70;;;8.03;;
1785;SDS011;890;48.158;11.540;2024-01-30T05:41:48;6.80;;;4.07;;
1785;SDS011;890;48.158;11.540;2024-01-30T05:44:14;15.07;;;7.10;;
1785;SDS011;890;48.158;11.540;2024-01-30T05:46:40;14.03;;;7.80;;
1785;SDS011;890;48.158;11.540;2024-01-30T05:49:06;4.40;;;3.37;;
1785;SDS011;890;48.158;11.540;2024-01-30T05:51:31;12.00;;;9.63;;
1785;SDS011;890;48.158;11.540;2024-01-30T05:53:57;12.67;;;7.17;;
1785;SDS011;890;48.158;11.540;2024-01-30T05:56:22;8.80;;;7.93;;
1785;SDS011;890;48.158;11.540;2024-01-30T05:58:48;13.73;;;6.23;;
1785;SDS011;890;48.158;11.540;2024-01-30T06:01:15;11.63;;;5.83;;
1785;SDS011;890;48.158;11.540;2024-01-30T06:03:41;12.43;;;7.90;;
1785;SDS011;890;48.158;11.540;2024-01-30T06:06:08;29.77;;;27.23;;
1785;SDS011;890;48.158;11.540;2024-01-30T06:08:34;17.93;;;10.40;;
1785;SDS011;890;48.158;11.540;2024-01-30T06:11:00;13.63;;;12.40;;
1785;SDS011;890;48.158;11.540;2024-01-30T06:13:26;9.33;;;8.13;;
1785;SDS011;890;48.158;11.540;2024-01-30T06:15:52;13.57;;;12.17;;
1785;SDS011;890;48.158;11.540;2024-01-30T06:18:17;14.07;;;6.77;;
1785;SDS011;890;48.158;11.540;2024-01-30T06:20:43;16.87;;;14.83;;
1785;SDS011;890;48.158;11.540;2024-01-30T06:23:09;20.33;;;18.60;;
1785;SDS011;890;48.158;11.540;2024-01-30T06:25:35;24.43;;;22.23;;
1785;SDS011;890;48.158;11.540;2024-01-30T06:28:00;11.90;;;9.13;;
1785;SDS011;890;48.158;11.540;2024-01-30T06:30:26;7.60;;;4.53;;
1785;SDS011;890;48.158;11.540;2024-01-30T06:32:52;44.10;;;40.03;;
1785;SDS011;890;48.158;11.540;2024-01-30T06:35:17;51.53;;;47.57;;
1785;SDS011;890;48.158;11.540;2024-01-30T06:37:43;132.23;;;119.50;;
1785;SDS011;890;48.158;11.540;2024-01-30T06:40:09;101.10;;;93.90;;
1785;SDS011;890;48.158;11.540;2024-01-30T06:42:35;106.33;;;97.50;;
1785;SDS011;890;48.158;11.540;2024-01-30T06:45:00;50.50;;;47.20;;
1785;SDS011;890;48.158;11.540;2024-01-30T06:47:26;82.47;;;75.63;;
1785;SDS011;890;48.158;11.540;2024-01-30T06:49:53;44.83;;;41.20;;
1785;SDS011;890;48.158;11.540;2024-01-30T06:52:19;127.47;;;119.27;;
1785;SDS011;890;48.158;11.540;2024-01-30T06:54:44;95.47;;;87.13;;
1785;SDS011;890;48.158;11.540;2024-01-30T06:57:10;58.43;;;53.70;;
1785;SDS011;890;48.158;11.540;2024-01-30T06:59:37;55.40;;;51.40;;
1785;SDS011;890;48.158;11.540;2024-01-30T07:02:08;62.00;;;57.30;;
1785;SDS011;890;48.158;11.540;2024-01-30T07:04:34;80.93;;;74.80;;
1785;SDS011;890;48.158;11.540;2024-01-30T07:07:02;99.27;;;93.10;;
1785;SDS011;890;48.158;11.540;2024-01-30T07:09:29;74.53;;;68.90;;
1785;SDS011;890;48.158;11.540;2024-01-30T07:11:55;133.57;;;122.47;;
1785;SDS011;890;48.158;11.540;2024-01-30T07:14:23;70.97;;;66.37;;
1785;SDS011;890;48.158;11.540;2024-01-30T07:16:49;45.00;;;41.87;;
1785;SDS011;890;48.158;11.540;2024-01-30T07:19:15;13.00;;;6.10;;
1785;SDS011;890;48.158;11.540;2024-01-30T07:21:41;16.33;;;13.47;;
1785;SDS011;890;48.158;11.540;2024-01-30T07:24:07;45.97;;;42.57;;
1785;SDS011;890;48.158;11.540;2024-01-30T07:26:33;167.67;;;154.07;;
1785;SDS011;890;48.158;11.540;2024-01-30T07:29:00;121.80;;;114.33;;
1785;SDS011;890;48.158;11.540;2024-01-30T07:31:26;90.03;;;85.00;;
1785;SDS011;890;48.158;11.540;2024-01-30T07:33:51;94.33;;;87.67;;
1785;SDS011;890;48.158;11.540;2024-01-30T07:36:18;110.37;;;102.80;;
1785;SDS011;890;48.158;11.540;2024-01-30T07:38:43;88.43;;;82.17;;
1785;SDS011;890;48.158;11.540;2024-01-30T07:41:09;45.20;;;42.13;;
1785;SDS011;890;48.158;11.540;2024-01-30T07:43:35;12.13;;;5.63;;
1785;SDS011;890;48.158;11.540;2024-01-30T07:46:01;34.53;;;32.13;;
1785;SDS011;890;48.158;11.540;2024-01-30T07:48:27;24.60;;;20.90;;
1785;SDS011;890;48.158;11.540;2024-01-30T07:50:53;14.70;;;13.30;;
1785;SDS011;890;48.158;11.540;2024-01-30T07:53:19;12.20;;;6.03;;
1785;SDS011;890;48.158;11.540;2024-01-30T07:55:44;9.50;;;6.10;;
1785;SDS011;890;48.158;11.540;2024-01-30T07:58:11;11.13;;;5.40;;
1785;SDS011;890;48.158;11.540;2024-01-30T08:00:37;11.10;;;6.50;;
1785;SDS011;890;48.158;11.540;2024-01-30T08:03:03;11.70;;;5.70;;
1785;SDS011;890;48.158;11.540;2024-01-30T08:05:30;24.33;;;21.83;;
1785;SDS011;890;48.158;11.540;2024-01-30T08:07:56;10.70;;;5.80;;
1785;SDS011;890;48.158;11.540;2024-01-30T08:10:21;9.13;;;6.10;;
1785;SDS011;890;48.158;11.540;2024-01-30T08:12:47;13.53;;;7.40;;
1785;SDS011;890;48.158;11.540;2024-01-30T08:15:13;9.70;;;5.40;;
1785;SDS011;890;48.158;11.540;2024-01-30T08:17:38;15.40;;;6.80;;
1785;SDS011;890;48.158;11.540;2024-01-30T08:20:04;14.30;;;8.50;;
1785;SDS011;890;48.158;11.540;2024-01-30T08:22:31;15.87;;;9.40;;
1785;SDS011;890;48.158;11.540;2024-01-30T08:24:56;17.50;;;6.93;;
1785;SDS011;890;48.158;11.540;2024-01-30T08:27:22;10.80;;;6.50;;
1785;SDS011;890;48.158;11.540;2024-01-30T08:29:48;9.70;;;5.87;;
1785;SDS011;890;48.158;11.540;2024-01-30T08:32:15;9.73;;;4.80;;
1785;SDS011;890;48.158;11.540;2024-01-30T08:34:40;9.67;;;6.00;;
1785;SDS011;890;48.158;11.540;2024-01-30T08:37:06;15.50;;;6.43;;
1785;SDS011;890;48.158;11.540;2024-01-30T08:39:32;10.63;;;5.10;;
1785;SDS011;890;48.158;11.540;2024-01-30T08:41:58;9.60;;;5.10;;
1785;SDS011;890;48.158;11.540;2024-01-30T08:44:23;8.27;;;5.33;;
1785;SDS011;890;48.158;11.540;2024-01-30T08:46:49;11.53;;;5.70;;
1785;SDS011;890;48.158;11.540;2024-01-30T08:49:19;10.37;;;5.40;;
1785;SDS011;890;48.158;11.540;2024-01-30T08:51:45;9.40;;;6.20;;
1785;SDS011;890;48.158;11.540;2024-01-30T08:54:10;9.90;;;6.37;;
1785;SDS011;890;48.158;11.540;2024-01-30T08:56:36;22.03;;;6.07;;
1785;SDS011;890;48.158;11.540;2024-01-30T08:59:02;12.37;;;5.33;;
1785;SDS011;890;48.158;11.540;2024-01-30T09:01:27;9.03;;;4.70;;
1785;SDS011;890;48.158;11.540;2024-01-30T09:03:53;7.10;;;5.30;;
1785;SDS011;890;48.158;11.540;2024-01-30T09:06:18;9.70;;;5.03;;
1785;SDS011;890;48.158;11.540;2024-01-30T09:08:44;10.63;;;5.20;;
1785;SDS011;890;48.158;11.540;2024-01-30T09:11:11;8.53;;;3.80;;
1785;SDS011;890;48.158;11.540;2024-01-30T09:13:37;11.57;;;3.50;;
1785;SDS011;890;48.158;11.540;2024-01-30T09:16:03;4.67;;;4.10;;
1785;SDS011;890;48.158;11.540;2024-01-30T09:18:29;5.47;;;3.43;;
1785;SDS011;890;48.158;11.540;2024-01-30T09:20:55;10.47;;;3.97;;
1785;SDS011;890;48.158;11.540;2024-01-30T09:23:21;9.03;;;4.13;;
1785;SDS011;890;48.158;11.540;2024-01-30T09:25:47;10.03;;;3.97;;
1785;SDS011;890;48.158;11.540;2024-01-30T09:28:13;10.20;;;3.53;;
1785;SDS011;890;48.158;11.540;2024-01-30T09:30:38;7.80;;;4.13;;
1785;SDS011;890;48.158;11.540;2024-01-30T09:33:04;12.83;;;4.30;;
1785;SDS011;890;48.158;11.540;2024-01-30T09:35:31;5.40;;;3.10;;
1785;SDS011;890;48.158;11.540;2024-01-30T09:37:57;4.87;;;3.53;;
1785;SDS011;890;48.158;11.540;2024-01-30T09:40:24;4.80;;;3.13;;
1785;SDS011;890;48.158;11.540;2024-01-30T09:42:50;6.47;;;3.60;;
1785;SDS011;890;48.158;11.540;2024-01-30T09:45:19;7.10;;;3.53;;
1785;SDS011;890;48.158;11.540;2024-01-30T09:47:48;7.43;;;3.43;;
1785;SDS011;890;48.158;11.540;2024-01-30T09:50:15;5.23;;;3.37;;
1785;SDS011;890;48.158;11.540;2024-01-30T09:52:41;11.53;;;4.40;;
1785;SDS011;890;48.158;11.540;2024-01-30T09:55:08;10.10;;;5.07;;
1785;SDS011;890;48.158;11.540;2024-01-30T09:57:34;6.43;;;3.87;;
1785;SDS011;890;48.158;11.540;2024-01-30T10:00:00;5.70;;;3.27;;
1785;SDS011;890;48.158;11.540;2024-01-30T10:02:27;4.30;;;2.77;;
1785;SDS011;890;48.158;11.540;2024-01-30T10:04:52;4.53;;;3.10;;
1785;SDS011;890;48.158;11.540;2024-01-30T10:07:18;7.93;;;4.23;;
1785;SDS011;890;48.158;11.540;2024-01-30T10:09:45;9.50;;;4.80;;
1785;SDS011;890;48.158;11.540;2024-01-30T10:12:11;6.97;;;4.00;;
1785;SDS011;890;48.158;11.540;2024-01-30T10:14:38;6.20;;;4.10;;
1785;SDS011;890;48.158;11.540;2024-01-30T10:17:04;9.63;;;5.00;;
1785;SDS011;890;48.158;11.540;2024-01-30T10:19:30;6.80;;;5.13;;
1785;SDS011;890;48.158;11.540;2024-01-30T10:21:56;11.70;;;5.13;;
1785;SDS011;890;48.158;11.540;2024-01-30T10:24:25;12.50;;;6.43;;
1785;SDS011;890;48.158;11.540;2024-01-30T10:26:51;431.77;;;406.33;;
1785;SDS011;890;48.158;11.540;2024-01-30T10:29:18;321.77;;;302.70;;
1785;SDS011;890;48.158;11.540;2024-01-30T10:31:44;31.73;;;29.10;;
1785;SDS011;890;48.158;11.540;2024-01-30T10:34:10;207.97;;;196.30;;
1785;SDS011;890;48.158;11.540;2024-01-30T10:36:39;322.00;;;302.47;;
1785;SDS011;890;48.158;11.540;2024-01-30T10:39:08;1040.23;;;979.03;;
1785;SDS011;890;48.158;11.540;2024-01-30T10:41:43;1200.77;;;999.90;;
1785;SDS011;890;48.158;11.540;2024-01-30T10:44:10;1206.40;;;999.90;;
1785;SDS011;890;48.158;11.540;2024-01-30T10:46:37;1226.63;;;999.90;;
1785;SDS011;890;48.158;11.540;2024-01-30T10:49:04;1125.63;;;999.90;;
1785;SDS011;890;48.158;11.540;2024-01-30T10:51:30;1203.10;;;999.90;;
1785;SDS011;890;48.158;11.540;2024-01-30T10:53:57;1195.60;;;999.90;;
1785;SDS011;890;48.158;11.540;2024-01-30T10:56:23;728.23;;;687.07;;
1785;SDS011;890;48.158;11.540;2024-01-30T10:58:52;224.60;;;213.50;;
1785;SDS011;890;48.158;11.540;2024-01-30T11:01:19;1210.30;;;999.90;;
1785;SDS011;890;48.158;11.540;2024-01-30T11:03:48;1128.87;;;999.90;;
1785;SDS011;890;48.158;11.540;2024-01-30T11:06:15;1190.50;;;999.90;;
1785;SDS011;890;48.158;11.540;2024-01-30T11:08:43;1170.60;;;999.90;;
1785;SDS011;890;48.158;11.540;2024-01-30T11:11:10;1137.23;;;999.90;;
1785;SDS011;890;48.158;11.540;2024-01-30T11:13:35;1150.70;;;999.90;;
1785;SDS011;890;48.158;11.540;2024-01-30T11:16:02;1133.10;;;999.90;;
1785;SDS011;890;48.158;11.540;2024-01-30T11:18:31;1118.93;;;999.90;;
1785;SDS011;890;48.158;11.540;2024-01-30T11:20:59;1139.47;;;999.90;;
1785;SDS011;890;48.158;11.540;2024-01-30T11:23:27;1129.10;;;999.90;;
1785;SDS011;890;48.158;11.540;2024-01-30T11:25:53;1145.30;;;999.90;;
1785;SDS011;890;48.158;11.540;2024-01-30T11:28:19;1136.33;;;999.90;;
1785;SDS011;890;48.158;11.540;2024-01-30T11:30:47;1129.83;;;999.90;;
1785;SDS011;890;48.158;11.540;2024-01-30T11:33:15;1087.23;;;999.90;;
1785;SDS011;890;48.158;11.540;2024-01-30T11:35:56;1115.17;;;999.90;;
1785;SDS011;890;48.158;11.540;2024-01-30T11:38:22;1105.77;;;999.90;;
1785;SDS011;890;48.158;11.540;2024-01-30T11:40:50;1134.93;;;999.90;;
1785;SDS011;890;48.158;11.540;2024-01-30T11:43:17;1123.03;;;999.90;;
1785;SDS011;890;48.158;11.540;2024-01-30T11:45:43;1121.77;;;999.90;;
1785;SDS011;890;48.158;11.540;2024-01-30T11:48:11;1098.57;;;999.90;;
1785;SDS011;890;48.158;11.540;2024-01-30T11:50:38;1105.27;;;999.90;;
1785;SDS011;890;48.158;11.540;2024-01-30T11:53:04;1144.00;;;999.90;;
1785;SDS011;890;48.158;11.540;2024-01-30T11:55:31;1161.17;;;999.90;;
1785;SDS011;890;48.158;11.540;2024-01-30T11:57:57;1066.70;;;998.10;;
1785;SDS011;890;48.158;11.540;2024-01-30T12:00:23;1121.93;;;999.90;;
1785;SDS011;890;48.158;11.540;2024-01-30T12:02:53;1104.40;;;999.90;;
1785;SDS011;890;48.158;11.540;2024-01-30T12:05:23;1078.10;;;999.90;;
1785;SDS011;890;48.158;11.540;2024-01-30T12:07:50;987.70;;;928.63;;
1785;SDS011;890;48.158;11.540;2024-01-30T12:10:16;1107.30;;;999.90;;
1785;SDS011;890;48.158;11.540;2024-01-30T12:12:44;1130.57;;;999.90;;
1785;SDS011;890;48.158;11.540;2024-01-30T12:15:14;1168.93;;;999.90;;
1785;SDS011;890;48.158;11.540;2024-01-30T12:17:40;1169.20;;;999.90;;
1785;SDS011;890;48.158;11.540;2024-01-30T12:20:07;1212.50;;;999.90;;
1785;SDS011;890;48.158;11.540;2024-01-30T12:22:42;1205.90;;;999.90;;
1785;SDS011;890;48.158;11.540;2024-01-30T12:25:09;1230.80;;;999.90;;
1785;SDS011;890;48.158;11.540;2024-01-30T12:27:36;1180.70;;;999.90;;
1785;SDS011;890;48.158;11.540;2024-01-30T12:30:06;1089.20;;;999.90;;
1785;SDS011;890;48.158;11.540;2024-01-30T12:32:35;1155.87;;;999.90;;
1785;SDS011;890;48.158;11.540;2024-01-30T12:35:02;1169.93;;;999.90;;
1785;SDS011;890;48.158;11.540;2024-01-30T12:37:29;1152.60;;;999.90;;
1785;SDS011;890;48.158;11.540;2024-01-30T12:39:55;1166.23;;;999.90;;
1785;SDS011;890;48.158;11.540;2024-01-30T12:42:21;1158.93;;;999.90;;
1785;SDS011;890;48.158;11.540;2024-01-30T12:44:47;1127.87;;;999.90;;
1785;SDS011;890;48.158;11.540;2024-01-30T12:47:14;1125.30;;;999.90;;
1785;SDS011;890;48.158;11.540;2024-01-30T12:49:41;1115.87;;;999.90;;
1785;SDS011;890;48.158;11.540;2024-01-30T12:52:08;1087.27;;;999.90;;
1785;SDS011;890;48.158;11.540;2024-01-30T12:54:34;1091.63;;;999.90;;
1785;SDS011;890;48.158;11.540;2024-01-30T12:56:59;1063.93;;;998.10;;
1785;SDS011;890;48.158;11.540;2024-01-30T12:59:25;1073.73;;;999.90;;
1785;SDS011;890;48.158;11.540;2024-01-30T13:01:51;1044.13;;;985.97;;
1785;SDS011;890;48.158;11.540;2024-01-30T13:04:16;1110.40;;;999.90;;
1785;SDS011;890;48.158;11.540;2024-01-30T13:06:42;798.50;;;758.73;;
1785;SDS011;890;48.158;11.540;2024-01-30T13:09:07;1059.17;;;999.70;;
1785;SDS011;890;48.158;11.540;2024-01-30T13:11:34;870.50;;;827.63;;
1785;SDS011;890;48.158;11.540;2024-01-30T13:14:00;894.90;;;852.00;;
1785;SDS011;890;48.158;11.540;2024-01-30T13:16:25;454.20;;;433.87;;
1785;SDS011;890;48.158;11.540;2024-01-30T13:18:51;494.93;;;472.60;;
1785;SDS011;890;48.158;11.540;2024-01-30T13:21:17;634.30;;;604.10;;
1785;SDS011;890;48.158;11.540;2024-01-30T13:23:42;464.27;;;444.10;;
1785;SDS011;890;48.158;11.540;2024-01-30T13:26:08;387.67;;;371.47;;
1785;SDS011;890;48.158;11.540;2024-01-30T13:28:34;444.50;;;425.00;;
1785;SDS011;890;48.158;11.540;2024-01-30T13:30:59;377.60;;;361.23;;
1785;SDS011;890;48.158;11.540;2024-01-30T13:33:26;697.13;;;663.60;;
1785;SDS011;890;48.158;11.540;2024-01-30T13:35:51;819.87;;;782.33;;
1785;SDS011;890;48.158;11.540;2024-01-30T13:38:17;462.67;;;441.67;;
1785;SDS011;890;48.158;11.540;2024-01-30T13:40:42;238.13;;;228.43;;
1785;SDS011;890;48.158;11.540;2024-01-30T13:43:08;144.63;;;138.77;;
1785;SDS011;890;48.158;11.540;2024-01-30T13:45:34;14.10;;;6.17;;
1785;SDS011;890;48.158;11.540;2024-01-30T13:48:00;8.93;;;3.50;;
1785;SDS011;890;48.158;11.540;2024-01-30T13:50:26;5.90;;;2.40;;
1785;SDS011;890;48.158;11.540;2024-01-30T13:52:51;10.50;;;3.80;;
1785;SDS011;890;48.158;11.540;2024-01-30T13:55:17;8.60;;;7.00;;
1785;SDS011;890;48.158;11.540;2024-01-30T13:57:42;8.10;;;3.30;;
1785;SDS011;890;48.158;11.540;2024-01-30T14:00:08;10.83;;;9.60;;
1785;SDS011;890;48.158;11.540;2024-01-30T14:02:34;9.53;;;4.30;;
1785;SDS011;890;48.158;11.540;2024-01-30T14:05:00;186.50;;;178.33;;
1785;SDS011;890;48.158;11.540;2024-01-30T14:07:26;164.83;;;158.30;;
1785;SDS011;890;48.158;11.540;2024-01-30T14:09:51;112.20;;;106.83;;
1785;SDS011;890;48.158;11.540;2024-01-30T14:12:17;95.13;;;90.97;;
1785;SDS011;890;48.158;11.540;2024-01-30T14:14:42;102.77;;;97.80;;
1785;SDS011;890;48.158;11.540;2024-01-30T14:17:08;108.07;;;103.17;;
1785;SDS011;890;48.158;11.540;2024-01-30T14:19:34;235.73;;;226.10;;
1785;SDS011;890;48.158;11.540;2024-01-30T14:22:00;177.13;;;170.00;;
1785;SDS011;890;48.158;11.540;2024-01-30T14:24:26;176.10;;;168.67;;
1785;SDS011;890;48.158;11.540;2024-01-30T14:26:52;373.53;;;357.87;;
1785;SDS011;890;48.158;11.540;2024-01-30T14:29:18;425.77;;;407.40;;
1785;SDS011;890;48.158;11.540;2024-01-30T14:31:43;324.47;;;311.33;;
1785;SDS011;890;48.158;11.540;2024-01-30T14:34:09;358.63;;;343.40;;
1785;SDS011;890;48.158;11.540;2024-01-30T14:36:36;257.83;;;248.27;;
1785;SDS011;890;48.158;11.540;2024-01-30T14:39:02;270.97;;;259.67;;
1785;SDS011;890;48.158;11.540;2024-01-30T14:41:28;9.87;;;7.90;;